sensor_id;sensor_type;location;lat;lon;timestamp;P1;durP1;ratioP1;P2;durP2;ratioP2
22955;SDS011;40888;48.148;11.526;2022-12-29T00:01:47;3.40;;;1.80;;
22955;SDS011;40888;48.148;11.526;2022-12-29T00:04:13;1.67;;;1.57;;
22955;SDS011;40888;48.148;11.526;2022-12-29T00:06:40;1.63;;;1.53;;
22955;SDS011;40888;48.148;11.526;2022-12-29T00:09:06;2.40;;;1.40;;
22955;SDS011;40888;48.148;11.526;2022-12-29T00:11:32;1.40;;;1.30;;
22955;SDS011;40888;48.148;11.526;2022-12-29T00:13:58;1.63;;;1.53;;
22955;SDS011;40888;48.148;11.526;2022-12-29T00:16:44;1.50;;;1.40;;
22955;SDS011;40888;48.148;11.526;2022-12-29T00:19:11;1.33;;;1.23;;
22955;SDS011;40888;48.148;11.526;2022-12-29T00:21:56;1.37;;;1.27;;
22955;SDS011;40888;48.148;11.526;2022-12-29T00:24:42;0.90;;;0.90;;
22955;SDS011;40888;48.148;11.526;2022-12-29T00:27:27;1.40;;;1.30;;
22955;SDS011;40888;48.148;11.526;2022-12-29T00:30:13;1.43;;;1.27;;
22955;SDS011;40888;48.148;11.526;2022-12-29T00:32:58;1.57;;;1.43;;
22955;SDS011;40888;48.148;11.526;2022-12-29T00:35:44;1.37;;;1.27;;
22955;SDS011;40888;48.148;11.526;2022-12-29T00:38:11;1.40;;;1.20;;
22955;SDS011;40888;48.148;11.526;2022-12-29T00:40:57;1.70;;;1.10;;
22955;SDS011;40888;48.148;11.526;2022-12-29T00:43:41;1.73;;;1.27;;
22955;SDS011;40888;48.148;11.526;2022-12-29T00:46:26;1.70;;;1.20;;
22955;SDS011;40888;48.148;11.526;2022-12-29T00:48:52;1.00;;;1.00;;
22955;SDS011;40888;48.148;11.526;2022-12-29T00:51:38;0.97;;;0.90;;
22955;SDS011;40888;48.148;11.526;2022-12-29T00:54:04;1.20;;;1.10;;
22955;SDS011;40888;48.148;11.526;2022-12-29T00:56:30;0.97;;;0.97;;
22955;SDS011;40888;48.148;11.526;2022-12-29T00:58:59;1.10;;;1.00;;
22955;SDS011;40888;48.148;11.526;2022-12-29T01:01:25;1.00;;;0.90;;
22955;SDS011;40888;48.148;11.526;2022-12-29T01:03:52;0.90;;;0.90;;
22955;SDS011;40888;48.148;11.526;2022-12-29T01:06:18;1.07;;;0.97;;
22955;SDS011;40888;48.148;11.526;2022-12-29T01:08:44;1.87;;;1.20;;
22955;SDS011;40888;48.148;11.526;2022-12-29T01:11:11;1.10;;;1.00;;
22955;SDS011;40888;48.148;11.526;2022-12-29T01:13:37;1.03;;;1.03;;
22955;SDS011;40888;48.148;11.526;2022-12-29T01:16:04;0.90;;;0.90;;
22955;SDS011;40888;48.148;11.526;2022-12-29T01:18:30;1.20;;;1.10;;
22955;SDS011;40888;48.148;11.526;2022-12-29T01:21:05;1.70;;;1.10;;
22955;SDS011;40888;48.148;11.526;2022-12-29T01:23:32;1.13;;;1.00;;
22955;SDS011;40888;48.148;11.526;2022-12-29T01:26:07;1.37;;;1.03;;
22955;SDS011;40888;48.148;11.526;2022-12-29T01:28:34;1.60;;;0.80;;
22955;SDS011;40888;48.148;11.526;2022-12-29T01:31:00;0.90;;;0.90;;
22955;SDS011;40888;48.148;11.526;2022-12-29T01:33:26;1.10;;;1.00;;
22955;SDS011;40888;48.148;11.526;2022-12-29T01:35:52;2.87;;;1.10;;
22955;SDS011;40888;48.148;11.526;2022-12-29T01:38:19;1.20;;;1.10;;
22955;SDS011;40888;48.148;11.526;2022-12-29T01:40:45;0.90;;;0.90;;
22955;SDS011;40888;48.148;11.526;2022-12-29T01:43:12;1.00;;;1.00;;
22955;SDS011;40888;48.148;11.526;2022-12-29T01:45:48;2.27;;;0.83;;
22955;SDS011;40888;48.148;11.526;2022-12-29T01:48:15;1.03;;;1.03;;
22955;SDS011;40888;48.148;11.526;2022-12-29T01:50:46;0.87;;;0.87;;
22955;SDS011;40888;48.148;11.526;2022-12-29T01:53:17;1.57;;;0.80;;
22955;SDS011;40888;48.148;11.526;2022-12-29T01:55:44;1.17;;;1.07;;
22955;SDS011;40888;48.148;11.526;2022-12-29T01:58:12;1.17;;;0.83;;
22955;SDS011;40888;48.148;11.526;2022-12-29T02:00:39;0.77;;;0.77;;
22955;SDS011;40888;48.148;11.526;2022-12-29T02:03:05;1.30;;;1.00;;
22955;SDS011;40888;48.148;11.526;2022-12-29T02:05:39;1.00;;;1.00;;
22955;SDS011;40888;48.148;11.526;2022-12-29T02:08:06;0.93;;;0.83;;
22955;SDS011;40888;48.148;11.526;2022-12-29T02:10:34;1.03;;;0.90;;
22955;SDS011;40888;48.148;11.526;2022-12-29T02:13:00;1.73;;;1.00;;
22955;SDS011;40888;48.148;11.526;2022-12-29T02:16:09;0.90;;;0.90;;
22955;SDS011;40888;48.148;11.526;2022-12-29T02:38:39;1.27;;;1.00;;
22955;SDS011;40888;48.148;11.526;2022-12-29T02:46:24;1.73;;;1.00;;
22955;SDS011;40888;48.148;11.526;2022-12-29T02:49:03;1.03;;;0.90;;
22955;SDS011;40888;48.148;11.526;2022-12-29T02:51:32;0.80;;;0.80;;
22955;SDS011;40888;48.148;11.526;2022-12-29T02:53:59;0.93;;;0.93;;
22955;SDS011;40888;48.148;11.526;2022-12-29T02:56:45;0.93;;;0.90;;
22955;SDS011;40888;48.148;11.526;2022-12-29T02:59:11;1.17;;;1.00;;
22955;SDS011;40888;48.148;11.526;2022-12-29T03:04:31;0.83;;;0.83;;
22955;SDS011;40888;48.148;11.526;2022-12-29T03:07:11;0.80;;;0.80;;
22955;SDS011;40888;48.148;11.526;2022-12-29T03:09:57;0.83;;;0.83;;
22955;SDS011;40888;48.148;11.526;2022-12-29T03:15:12;0.67;;;0.67;;
22955;SDS011;40888;48.148;11.526;2022-12-29T03:18:06;1.07;;;1.07;;
22955;SDS011;40888;48.148;11.526;2022-12-29T03:20:38;0.60;;;0.60;;
22955;SDS011;40888;48.148;11.526;2022-12-29T03:23:05;1.20;;;1.10;;
22955;SDS011;40888;48.148;11.526;2022-12-29T03:25:33;0.93;;;0.93;;
22955;SDS011;40888;48.148;11.526;2022-12-29T03:28:03;0.77;;;0.70;;
22955;SDS011;40888;48.148;11.526;2022-12-29T03:30:30;1.23;;;1.00;;
22955;SDS011;40888;48.148;11.526;2022-12-29T03:32:59;0.90;;;0.80;;
22955;SDS011;40888;48.148;11.526;2022-12-29T03:35:27;1.50;;;1.20;;
22955;SDS011;40888;48.148;11.526;2022-12-29T03:37:57;1.63;;;0.90;;
22955;SDS011;40888;48.148;11.526;2022-12-29T03:40:24;1.90;;;1.03;;
22955;SDS011;40888;48.148;11.526;2022-12-29T03:42:52;0.90;;;0.90;;
22955;SDS011;40888;48.148;11.526;2022-12-29T03:45:18;1.00;;;1.00;;
22955;SDS011;40888;48.148;11.526;2022-12-29T03:47:45;1.17;;;1.07;;
22955;SDS011;40888;48.148;11.526;2022-12-29T03:50:11;1.57;;;1.20;;
22955;SDS011;40888;48.148;11.526;2022-12-29T03:52:38;0.77;;;0.60;;
22955;SDS011;40888;48.148;11.526;2022-12-29T03:55:04;0.90;;;0.90;;
22955;SDS011;40888;48.148;11.526;2022-12-29T03:57:30;0.70;;;0.70;;
22955;SDS011;40888;48.148;11.526;2022-12-29T03:59:56;1.63;;;1.00;;
22955;SDS011;40888;48.148;11.526;2022-12-29T04:02:22;1.73;;;0.80;;
22955;SDS011;40888;48.148;11.526;2022-12-29T04:04:48;0.83;;;0.83;;
22955;SDS011;40888;48.148;11.526;2022-12-29T04:07:15;0.80;;;0.80;;
22955;SDS011;40888;48.148;11.526;2022-12-29T04:09:41;0.90;;;0.90;;
22955;SDS011;40888;48.148;11.526;2022-12-29T04:12:07;1.70;;;0.70;;
22955;SDS011;40888;48.148;11.526;2022-12-29T04:14:33;0.83;;;0.80;;
22955;SDS011;40888;48.148;11.526;2022-12-29T04:16:59;0.80;;;0.80;;
22955;SDS011;40888;48.148;11.526;2022-12-29T04:19:25;2.13;;;0.80;;
22955;SDS011;40888;48.148;11.526;2022-12-29T04:21:51;0.93;;;0.93;;
22955;SDS011;40888;48.148;11.526;2022-12-29T04:24:18;1.27;;;1.17;;
22955;SDS011;40888;48.148;11.526;2022-12-29T04:26:44;1.00;;;0.80;;
22955;SDS011;40888;48.148;11.526;2022-12-29T04:29:10;2.23;;;1.10;;
22955;SDS011;40888;48.148;11.526;2022-12-29T04:31:36;1.30;;;1.20;;
22955;SDS011;40888;48.148;11.526;2022-12-29T04:34:02;0.80;;;0.80;;
22955;SDS011;40888;48.148;11.526;2022-12-29T04:36:28;1.23;;;1.10;;
22955;SDS011;40888;48.148;11.526;2022-12-29T04:38:54;0.97;;;0.97;;
22955;SDS011;40888;48.148;11.526;2022-12-29T04:41:20;1.20;;;1.17;;
22955;SDS011;40888;48.148;11.526;2022-12-29T04:43:47;1.00;;;1.00;;
22955;SDS011;40888;48.148;11.526;2022-12-29T04:46:13;1.03;;;0.90;;
22955;SDS011;40888;48.148;11.526;2022-12-29T04:48:39;0.70;;;0.70;;
22955;SDS011;40888;48.148;11.526;2022-12-29T04:51:05;0.80;;;0.80;;
22955;SDS011;40888;48.148;11.526;2022-12-29T04:53:31;1.07;;;0.97;;
22955;SDS011;40888;48.148;11.526;2022-12-29T04:55:57;2.37;;;1.00;;
22955;SDS011;40888;48.148;11.526;2022-12-29T04:58:23;0.93;;;0.83;;
22955;SDS011;40888;48.148;11.526;2022-12-29T05:00:50;1.07;;;0.83;;
22955;SDS011;40888;48.148;11.526;2022-12-29T05:03:16;1.13;;;1.00;;
22955;SDS011;40888;48.148;11.526;2022-12-29T05:05:42;0.90;;;0.90;;
22955;SDS011;40888;48.148;11.526;2022-12-29T05:08:08;1.00;;;1.00;;
22955;SDS011;40888;48.148;11.526;2022-12-29T05:10:34;1.07;;;1.00;;
22955;SDS011;40888;48.148;11.526;2022-12-29T05:13:01;1.03;;;0.80;;
22955;SDS011;40888;48.148;11.526;2022-12-29T05:15:27;1.10;;;1.00;;
22955;SDS011;40888;48.148;11.526;2022-12-29T05:17:53;2.17;;;0.80;;
22955;SDS011;40888;48.148;11.526;2022-12-29T05:20:20;2.63;;;1.10;;
22955;SDS011;40888;48.148;11.526;2022-12-29T05:22:46;1.17;;;1.00;;
22955;SDS011;40888;48.148;11.526;2022-12-29T05:25:12;1.13;;;1.00;;
22955;SDS011;40888;48.148;11.526;2022-12-29T05:27:38;0.83;;;0.83;;
22955;SDS011;40888;48.148;11.526;2022-12-29T05:30:04;0.97;;;0.97;;
22955;SDS011;40888;48.148;11.526;2022-12-29T05:32:30;0.80;;;0.80;;
22955;SDS011;40888;48.148;11.526;2022-12-29T05:34:57;0.93;;;0.93;;
22955;SDS011;40888;48.148;11.526;2022-12-29T05:37:23;0.93;;;0.80;;
22955;SDS011;40888;48.148;11.526;2022-12-29T05:39:49;1.63;;;1.13;;
22955;SDS011;40888;48.148;11.526;2022-12-29T05:42:15;1.13;;;0.93;;
22955;SDS011;40888;48.148;11.526;2022-12-29T05:44:41;1.20;;;1.10;;
22955;SDS011;40888;48.148;11.526;2022-12-29T05:47:08;1.97;;;1.20;;
22955;SDS011;40888;48.148;11.526;2022-12-29T05:49:34;0.97;;;0.87;;
22955;SDS011;40888;48.148;11.526;2022-12-29T05:52:00;1.13;;;0.90;;
22955;SDS011;40888;48.148;11.526;2022-12-29T05:54:26;2.40;;;1.10;;
22955;SDS011;40888;48.148;11.526;2022-12-29T05:56:52;2.10;;;1.13;;
22955;SDS011;40888;48.148;11.526;2022-12-29T05:59:18;0.80;;;0.80;;
22955;SDS011;40888;48.148;11.526;2022-12-29T06:01:44;1.07;;;0.97;;
22955;SDS011;40888;48.148;11.526;2022-12-29T06:04:10;1.47;;;0.90;;
22955;SDS011;40888;48.148;11.526;2022-12-29T06:06:36;0.87;;;0.87;;
22955;SDS011;40888;48.148;11.526;2022-12-29T06:09:03;1.40;;;1.20;;
22955;SDS011;40888;48.148;11.526;2022-12-29T06:11:30;1.83;;;1.13;;
22955;SDS011;40888;48.148;11.526;2022-12-29T06:13:56;1.03;;;1.00;;
22955;SDS011;40888;48.148;11.526;2022-12-29T06:16:22;1.00;;;1.00;;
22955;SDS011;40888;48.148;11.526;2022-12-29T06:18:48;1.20;;;1.10;;
22955;SDS011;40888;48.148;11.526;2022-12-29T06:21:14;1.33;;;1.03;;
22955;SDS011;40888;48.148;11.526;2022-12-29T06:23:40;0.90;;;0.90;;
22955;SDS011;40888;48.148;11.526;2022-12-29T06:26:06;1.00;;;0.90;;
22955;SDS011;40888;48.148;11.526;2022-12-29T06:28:32;0.90;;;0.90;;
22955;SDS011;40888;48.148;11.526;2022-12-29T06:30:58;1.00;;;1.00;;
22955;SDS011;40888;48.148;11.526;2022-12-29T06:33:27;1.10;;;1.00;;
22955;SDS011;40888;48.148;11.526;2022-12-29T06:35:53;1.00;;;1.00;;
22955;SDS011;40888;48.148;11.526;2022-12-29T06:38:19;1.13;;;1.00;;
22955;SDS011;40888;48.148;11.526;2022-12-29T06:40:45;1.20;;;1.10;;
22955;SDS011;40888;48.148;11.526;2022-12-29T06:43:11;1.40;;;1.30;;
22955;SDS011;40888;48.148;11.526;2022-12-29T06:45:38;2.53;;;1.13;;
22955;SDS011;40888;48.148;11.526;2022-12-29T06:48:05;1.17;;;1.00;;
22955;SDS011;40888;48.148;11.526;2022-12-29T06:50:31;2.67;;;0.97;;
22955;SDS011;40888;48.148;11.526;2022-12-29T06:52:57;1.40;;;0.93;;
22955;SDS011;40888;48.148;11.526;2022-12-29T06:55:23;1.17;;;1.03;;
22955;SDS011;40888;48.148;11.526;2022-12-29T06:57:49;1.63;;;0.93;;
22955;SDS011;40888;48.148;11.526;2022-12-29T07:00:16;1.77;;;1.20;;
22955;SDS011;40888;48.148;11.526;2022-12-29T07:02:42;2.37;;;1.10;;
22955;SDS011;40888;48.148;11.526;2022-12-29T07:05:08;2.47;;;1.37;;
22955;SDS011;40888;48.148;11.526;2022-12-29T07:07:35;1.27;;;1.17;;
22955;SDS011;40888;48.148;11.526;2022-12-29T07:10:01;3.80;;;1.20;;
22955;SDS011;40888;48.148;11.526;2022-12-29T07:12:27;1.80;;;1.00;;
22955;SDS011;40888;48.148;11.526;2022-12-29T07:14:53;1.30;;;1.20;;
22955;SDS011;40888;48.148;11.526;2022-12-29T07:17:19;1.43;;;1.10;;
22955;SDS011;40888;48.148;11.526;2022-12-29T07:19:45;1.73;;;1.20;;
22955;SDS011;40888;48.148;11.526;2022-12-29T07:22:11;2.17;;;1.20;;
22955;SDS011;40888;48.148;11.526;2022-12-29T07:24:38;1.77;;;1.10;;
22955;SDS011;40888;48.148;11.526;2022-12-29T07:27:04;2.57;;;1.10;;
22955;SDS011;40888;48.148;11.526;2022-12-29T07:29:30;1.17;;;1.10;;
22955;SDS011;40888;48.148;11.526;2022-12-29T07:31:56;1.40;;;1.00;;
22955;SDS011;40888;48.148;11.526;2022-12-29T07:34:22;2.13;;;1.10;;
22955;SDS011;40888;48.148;11.526;2022-12-29T07:36:48;0.97;;;0.93;;
22955;SDS011;40888;48.148;11.526;2022-12-29T07:39:14;1.30;;;1.20;;
22955;SDS011;40888;48.148;11.526;2022-12-29T07:41:41;1.30;;;1.10;;
22955;SDS011;40888;48.148;11.526;2022-12-29T07:44:08;1.57;;;1.23;;
22955;SDS011;40888;48.148;11.526;2022-12-29T07:46:34;1.73;;;1.30;;
22955;SDS011;40888;48.148;11.526;2022-12-29T07:49:00;1.50;;;1.30;;
22955;SDS011;40888;48.148;11.526;2022-12-29T07:51:27;2.20;;;1.10;;
22955;SDS011;40888;48.148;11.526;2022-12-29T07:53:53;1.50;;;1.20;;
22955;SDS011;40888;48.148;11.526;2022-12-29T07:56:19;1.13;;;1.03;;
22955;SDS011;40888;48.148;11.526;2022-12-29T07:58:45;1.77;;;1.60;;
22955;SDS011;40888;48.148;11.526;2022-12-29T08:01:11;1.63;;;1.20;;
22955;SDS011;40888;48.148;11.526;2022-12-29T08:03:37;1.30;;;1.20;;
22955;SDS011;40888;48.148;11.526;2022-12-29T08:06:08;2.67;;;1.30;;
22955;SDS011;40888;48.148;11.526;2022-12-29T08:08:34;3.13;;;1.40;;
22955;SDS011;40888;48.148;11.526;2022-12-29T08:11:00;1.30;;;1.13;;
22955;SDS011;40888;48.148;11.526;2022-12-29T08:13:27;2.90;;;1.57;;
22955;SDS011;40888;48.148;11.526;2022-12-29T08:15:53;1.97;;;1.33;;
22955;SDS011;40888;48.148;11.526;2022-12-29T08:18:19;1.67;;;1.13;;
22955;SDS011;40888;48.148;11.526;2022-12-29T08:20:45;1.20;;;1.20;;
22955;SDS011;40888;48.148;11.526;2022-12-29T08:23:11;1.60;;;1.50;;
22955;SDS011;40888;48.148;11.526;2022-12-29T08:25:37;2.13;;;1.37;;
22955;SDS011;40888;48.148;11.526;2022-12-29T08:28:03;2.43;;;1.67;;
22955;SDS011;40888;48.148;11.526;2022-12-29T08:30:29;1.60;;;1.40;;
22955;SDS011;40888;48.148;11.526;2022-12-29T08:32:56;2.40;;;1.30;;
22955;SDS011;40888;48.148;11.526;2022-12-29T08:35:22;1.67;;;1.47;;
22955;SDS011;40888;48.148;11.526;2022-12-29T08:37:48;2.23;;;1.50;;
22955;SDS011;40888;48.148;11.526;2022-12-29T08:40:14;1.97;;;1.50;;
22955;SDS011;40888;48.148;11.526;2022-12-29T08:42:40;3.70;;;1.30;;
22955;SDS011;40888;48.148;11.526;2022-12-29T08:45:07;1.50;;;1.40;;
22955;SDS011;40888;48.148;11.526;2022-12-29T08:47:33;1.43;;;1.33;;
22955;SDS011;40888;48.148;11.526;2022-12-29T08:50:00;1.40;;;1.33;;
22955;SDS011;40888;48.148;11.526;2022-12-29T08:52:26;1.60;;;1.00;;
22955;SDS011;40888;48.148;11.526;2022-12-29T08:54:52;2.47;;;1.07;;
22955;SDS011;40888;48.148;11.526;2022-12-29T08:57:18;2.40;;;1.30;;
22955;SDS011;40888;48.148;11.526;2022-12-29T08:59:44;3.00;;;1.77;;
22955;SDS011;40888;48.148;11.526;2022-12-29T09:02:10;1.63;;;1.20;;
22955;SDS011;40888;48.148;11.526;2022-12-29T09:04:37;2.63;;;1.23;;
22955;SDS011;40888;48.148;11.526;2022-12-29T09:07:03;2.47;;;1.30;;
22955;SDS011;40888;48.148;11.526;2022-12-29T09:09:30;2.63;;;1.07;;
22955;SDS011;40888;48.148;11.526;2022-12-29T09:11:56;2.20;;;1.87;;
22955;SDS011;40888;48.148;11.526;2022-12-29T09:14:22;2.40;;;1.40;;
22955;SDS011;40888;48.148;11.526;2022-12-29T09:16:50;1.50;;;1.30;;
22955;SDS011;40888;48.148;11.526;2022-12-29T09:19:35;1.70;;;1.40;;
22955;SDS011;40888;48.148;11.526;2022-12-29T09:22:01;1.40;;;1.07;;
22955;SDS011;40888;48.148;11.526;2022-12-29T09:24:28;1.10;;;1.00;;
22955;SDS011;40888;48.148;11.526;2022-12-29T09:26:54;1.30;;;1.20;;
22955;SDS011;40888;48.148;11.526;2022-12-29T09:29:20;1.30;;;1.20;;
22955;SDS011;40888;48.148;11.526;2022-12-29T09:31:46;1.50;;;1.33;;
22955;SDS011;40888;48.148;11.526;2022-12-29T09:34:13;4.10;;;1.70;;
22955;SDS011;40888;48.148;11.526;2022-12-29T09:36:39;2.00;;;1.30;;
22955;SDS011;40888;48.148;11.526;2022-12-29T09:39:05;1.10;;;1.03;;
22955;SDS011;40888;48.148;11.526;2022-12-29T09:44:16;1.30;;;1.20;;
22955;SDS011;40888;48.148;11.526;2022-12-29T09:46:46;4.10;;;1.50;;
22955;SDS011;40888;48.148;11.526;2022-12-29T09:49:31;1.37;;;1.27;;
22955;SDS011;40888;48.148;11.526;2022-12-29T09:52:04;1.30;;;1.20;;
22955;SDS011;40888;48.148;11.526;2022-12-29T09:56:57;2.13;;;1.40;;
22955;SDS011;40888;48.148;11.526;2022-12-29T09:59:25;1.67;;;1.40;;
22955;SDS011;40888;48.148;11.526;2022-12-29T10:02:08;1.50;;;1.40;;
22955;SDS011;40888;48.148;11.526;2022-12-29T10:04:38;1.73;;;1.60;;
22955;SDS011;40888;48.148;11.526;2022-12-29T10:07:10;2.23;;;1.67;;
22955;SDS011;40888;48.148;11.526;2022-12-29T10:15:39;2.13;;;1.10;;
22955;SDS011;40888;48.148;11.526;2022-12-29T10:25:37;1.53;;;1.43;;
22955;SDS011;40888;48.148;11.526;2022-12-29T10:28:05;1.60;;;1.50;;
22955;SDS011;40888;48.148;11.526;2022-12-29T10:30:32;1.57;;;1.40;;
22955;SDS011;40888;48.148;11.526;2022-12-29T10:33:01;2.63;;;1.40;;
22955;SDS011;40888;48.148;11.526;2022-12-29T10:35:35;2.90;;;1.70;;
22955;SDS011;40888;48.148;11.526;2022-12-29T10:41:11;2.63;;;1.47;;
22955;SDS011;40888;48.148;11.526;2022-12-29T10:43:38;1.43;;;1.33;;
22955;SDS011;40888;48.148;11.526;2022-12-29T10:46:09;1.30;;;1.20;;
22955;SDS011;40888;48.148;11.526;2022-12-29T10:48:37;1.40;;;1.30;;
22955;SDS011;40888;48.148;11.526;2022-12-29T10:51:07;1.40;;;1.30;;
22955;SDS011;40888;48.148;11.526;2022-12-29T10:58:46;1.70;;;1.60;;
22955;SDS011;40888;48.148;11.526;2022-12-29T11:01:14;2.77;;;1.20;;
22955;SDS011;40888;48.148;11.526;2022-12-29T11:04:02;1.47;;;1.37;;
22955;SDS011;40888;48.148;11.526;2022-12-29T11:06:27;1.63;;;1.40;;
22955;SDS011;40888;48.148;11.526;2022-12-29T11:09:11;2.70;;;1.50;;
22955;SDS011;40888;48.148;11.526;2022-12-29T11:11:38;1.83;;;1.50;;
22955;SDS011;40888;48.148;11.526;2022-12-29T11:14:12;1.30;;;1.20;;
22955;SDS011;40888;48.148;11.526;2022-12-29T11:16:39;1.97;;;1.50;;
22955;SDS011;40888;48.148;11.526;2022-12-29T11:19:22;1.50;;;1.40;;
22955;SDS011;40888;48.148;11.526;2022-12-29T11:21:48;2.07;;;1.60;;
22955;SDS011;40888;48.148;11.526;2022-12-29T11:24:22;2.30;;;1.40;;
22955;SDS011;40888;48.148;11.526;2022-12-29T11:26:49;1.27;;;1.07;;
22955;SDS011;40888;48.148;11.526;2022-12-29T11:29:25;1.40;;;1.10;;
22955;SDS011;40888;48.148;11.526;2022-12-29T11:31:52;1.73;;;1.50;;
22955;SDS011;40888;48.148;11.526;2022-12-29T11:34:40;3.17;;;1.40;;
22955;SDS011;40888;48.148;11.526;2022-12-29T11:37:06;1.50;;;1.13;;
22955;SDS011;40888;48.148;11.526;2022-12-29T11:39:40;2.00;;;1.30;;
22955;SDS011;40888;48.148;11.526;2022-12-29T11:42:12;2.43;;;1.23;;
22955;SDS011;40888;48.148;11.526;2022-12-29T11:44:42;2.50;;;1.17;;
22955;SDS011;40888;48.148;11.526;2022-12-29T11:47:08;1.07;;;1.03;;
22955;SDS011;40888;48.148;11.526;2022-12-29T11:49:38;1.80;;;0.90;;
22955;SDS011;40888;48.148;11.526;2022-12-29T11:52:04;1.17;;;0.80;;
22955;SDS011;40888;48.148;11.526;2022-12-29T11:54:31;1.30;;;0.90;;
22955;SDS011;40888;48.148;11.526;2022-12-29T11:56:59;1.03;;;1.00;;
22955;SDS011;40888;48.148;11.526;2022-12-29T11:59:35;1.27;;;1.13;;
22955;SDS011;40888;48.148;11.526;2022-12-29T12:02:10;1.87;;;0.90;;
22955;SDS011;40888;48.148;11.526;2022-12-29T12:04:39;2.63;;;1.10;;
22955;SDS011;40888;48.148;11.526;2022-12-29T12:09:43;1.00;;;1.00;;
22955;SDS011;40888;48.148;11.526;2022-12-29T12:12:15;0.93;;;0.83;;
22955;SDS011;40888;48.148;11.526;2022-12-29T12:14:51;0.67;;;0.67;;
22955;SDS011;40888;48.148;11.526;2022-12-29T12:17:27;1.10;;;1.00;;
22955;SDS011;40888;48.148;11.526;2022-12-29T12:20:14;1.93;;;0.77;;
22955;SDS011;40888;48.148;11.526;2022-12-29T12:22:44;2.87;;;1.30;;
22955;SDS011;40888;48.148;11.526;2022-12-29T12:25:20;0.97;;;0.97;;
22955;SDS011;40888;48.148;11.526;2022-12-29T12:30:17;0.83;;;0.83;;
22955;SDS011;40888;48.148;11.526;2022-12-29T12:32:46;1.43;;;0.97;;
22955;SDS011;40888;48.148;11.526;2022-12-29T12:35:15;1.50;;;1.20;;
22955;SDS011;40888;48.148;11.526;2022-12-29T12:37:46;0.87;;;0.80;;
22955;SDS011;40888;48.148;11.526;2022-12-29T12:40:23;2.10;;;0.73;;
22955;SDS011;40888;48.148;11.526;2022-12-29T12:48:14;1.87;;;1.20;;
22955;SDS011;40888;48.148;11.526;2022-12-29T12:53:18;1.73;;;1.00;;
22955;SDS011;40888;48.148;11.526;2022-12-29T12:55:59;1.43;;;1.00;;
22955;SDS011;40888;48.148;11.526;2022-12-29T13:06:47;2.60;;;0.73;;
22955;SDS011;40888;48.148;11.526;2022-12-29T13:14:43;1.73;;;0.93;;
22955;SDS011;40888;48.148;11.526;2022-12-29T13:19:59;2.00;;;1.20;;
22955;SDS011;40888;48.148;11.526;2022-12-29T13:22:37;3.00;;;1.10;;
22955;SDS011;40888;48.148;11.526;2022-12-29T13:30:17;0.80;;;0.80;;
22955;SDS011;40888;48.148;11.526;2022-12-29T13:35:23;1.60;;;1.10;;
22955;SDS011;40888;48.148;11.526;2022-12-29T13:40:45;1.53;;;1.00;;
22955;SDS011;40888;48.148;11.526;2022-12-29T13:43:12;2.00;;;1.30;;
22955;SDS011;40888;48.148;11.526;2022-12-29T13:45:39;2.10;;;1.03;;
22955;SDS011;40888;48.148;11.526;2022-12-29T13:48:15;1.10;;;1.07;;
22955;SDS011;40888;48.148;11.526;2022-12-29T13:50:43;1.83;;;1.20;;
22955;SDS011;40888;48.148;11.526;2022-12-29T13:56:04;2.23;;;1.20;;
22955;SDS011;40888;48.148;11.526;2022-12-29T13:58:37;1.70;;;1.17;;
22955;SDS011;40888;48.148;11.526;2022-12-29T14:08:38;1.23;;;1.20;;
22955;SDS011;40888;48.148;11.526;2022-12-29T14:11:08;1.93;;;1.07;;
22955;SDS011;40888;48.148;11.526;2022-12-29T14:13:37;2.93;;;1.10;;
22955;SDS011;40888;48.148;11.526;2022-12-29T14:16:04;1.00;;;1.00;;
22955;SDS011;40888;48.148;11.526;2022-12-29T14:18:31;3.20;;;1.47;;
22955;SDS011;40888;48.148;11.526;2022-12-29T14:23:35;2.00;;;1.30;;
22955;SDS011;40888;48.148;11.526;2022-12-29T14:30:59;1.60;;;1.33;;
22955;SDS011;40888;48.148;11.526;2022-12-29T14:33:26;4.03;;;1.40;;
22955;SDS011;40888;48.148;11.526;2022-12-29T14:35:53;2.33;;;1.30;;
22955;SDS011;40888;48.148;11.526;2022-12-29T14:38:24;1.73;;;1.40;;
22955;SDS011;40888;48.148;11.526;2022-12-29T14:40:50;1.27;;;0.97;;
22955;SDS011;40888;48.148;11.526;2022-12-29T14:43:21;3.50;;;1.30;;
22955;SDS011;40888;48.148;11.526;2022-12-29T14:45:51;1.43;;;1.10;;
22955;SDS011;40888;48.148;11.526;2022-12-29T14:48:37;1.70;;;1.30;;
22955;SDS011;40888;48.148;11.526;2022-12-29T14:51:46;1.60;;;1.50;;
22955;SDS011;40888;48.148;11.526;2022-12-29T14:53:53;2.30;;;1.40;;
22955;SDS011;40888;48.148;11.526;2022-12-29T14:56:20;1.60;;;1.50;;
22955;SDS011;40888;48.148;11.526;2022-12-29T15:01:18;4.47;;;1.63;;
22955;SDS011;40888;48.148;11.526;2022-12-29T15:03:45;2.77;;;1.60;;
22955;SDS011;40888;48.148;11.526;2022-12-29T15:06:12;2.70;;;1.90;;
22955;SDS011;40888;48.148;11.526;2022-12-29T15:11:21;5.33;;;2.03;;
22955;SDS011;40888;48.148;11.526;2022-12-29T15:13:48;4.13;;;2.43;;
22955;SDS011;40888;48.148;11.526;2022-12-29T15:16:33;3.60;;;2.03;;
22955;SDS011;40888;48.148;11.526;2022-12-29T15:19:02;3.63;;;2.30;;
22955;SDS011;40888;48.148;11.526;2022-12-29T15:21:31;3.17;;;2.07;;
22955;SDS011;40888;48.148;11.526;2022-12-29T15:23:58;3.10;;;2.00;;
22955;SDS011;40888;48.148;11.526;2022-12-29T15:26:35;3.20;;;1.97;;
22955;SDS011;40888;48.148;11.526;2022-12-29T15:29:02;2.53;;;1.80;;
22955;SDS011;40888;48.148;11.526;2022-12-29T15:31:28;2.90;;;1.93;;
22955;SDS011;40888;48.148;11.526;2022-12-29T15:33:55;2.63;;;2.00;;
22955;SDS011;40888;48.148;11.526;2022-12-29T15:36:28;2.17;;;1.90;;
22955;SDS011;40888;48.148;11.526;2022-12-29T15:38:54;2.87;;;2.00;;
22955;SDS011;40888;48.148;11.526;2022-12-29T15:41:39;5.77;;;1.97;;
22955;SDS011;40888;48.148;11.526;2022-12-29T15:44:25;6.10;;;2.20;;
22955;SDS011;40888;48.148;11.526;2022-12-29T15:46:52;2.80;;;2.10;;
22955;SDS011;40888;48.148;11.526;2022-12-29T15:49:18;3.97;;;2.37;;
22955;SDS011;40888;48.148;11.526;2022-12-29T15:51:45;2.20;;;2.00;;
22955;SDS011;40888;48.148;11.526;2022-12-29T15:54:15;2.30;;;2.10;;
22955;SDS011;40888;48.148;11.526;2022-12-29T15:56:42;2.63;;;2.30;;
22955;SDS011;40888;48.148;11.526;2022-12-29T15:59:44;3.83;;;2.63;;
22955;SDS011;40888;48.148;11.526;2022-12-29T16:02:01;3.13;;;2.00;;
22955;SDS011;40888;48.148;11.526;2022-12-29T16:04:29;2.10;;;1.90;;
22955;SDS011;40888;48.148;11.526;2022-12-29T16:12:07;4.90;;;3.50;;
22955;SDS011;40888;48.148;11.526;2022-12-29T16:14:37;2.70;;;2.50;;
22955;SDS011;40888;48.148;11.526;2022-12-29T16:17:05;3.37;;;2.10;;
22955;SDS011;40888;48.148;11.526;2022-12-29T16:19:41;3.60;;;2.20;;
22955;SDS011;40888;48.148;11.526;2022-12-29T16:22:14;3.87;;;2.10;;
22955;SDS011;40888;48.148;11.526;2022-12-29T16:24:43;2.10;;;1.90;;
22955;SDS011;40888;48.148;11.526;2022-12-29T16:27:14;2.30;;;1.80;;
22955;SDS011;40888;48.148;11.526;2022-12-29T16:29:45;3.47;;;2.20;;
22955;SDS011;40888;48.148;11.526;2022-12-29T16:34:50;3.13;;;2.03;;
22955;SDS011;40888;48.148;11.526;2022-12-29T16:37:33;2.20;;;2.00;;
22955;SDS011;40888;48.148;11.526;2022-12-29T16:42:46;1.70;;;1.60;;
22955;SDS011;40888;48.148;11.526;2022-12-29T16:47:46;2.23;;;1.60;;
22955;SDS011;40888;48.148;11.526;2022-12-29T16:50:15;2.50;;;1.93;;
22955;SDS011;40888;48.148;11.526;2022-12-29T16:52:46;2.90;;;2.27;;
22955;SDS011;40888;48.148;11.526;2022-12-29T16:55:17;3.10;;;2.30;;
22955;SDS011;40888;48.148;11.526;2022-12-29T16:57:44;2.30;;;2.10;;
22955;SDS011;40888;48.148;11.526;2022-12-29T17:00:17;2.63;;;2.07;;